Carmen de Patagones, Argentina
Current Conditions -  °F | °C
As of 10:00 AM on Saturday 25 Oct 2014 (Local Time) from SAZN Reporting Station
Clear Clear  
Wind Chill: 70°   Ceiling: Unl
Heat Index: 70°   Visibility: 6mi
Dew Point: 46°   Wind: 3mph
Humidity: 43%   Direction: 250°WSW
Pressure: 29.88"   Gusts: NA
Location:  40.8°S, 62.98°W
Report Text: SAZN 251300Z 25003KT CAVOK 21/08 Q1012
Loading
Personal Weather Stations






























Interactive Weather Map
Tropical Storm Tracking
New forecast layout! Learn more

10-Day Weather Forecast

Advertisements
Track Severe Weather on mobile